sensor_id;sensor_type;location;lat;lon;timestamp;pressure;altitude;pressure_sealevel;temperature;humidity
77517;BME280;68414;53.946;27.634;2023-03-11T00:00:05;96787.078125;;;3.270000;64.768555
77517;BME280;68414;53.946;27.634;2023-03-11T00:01:04;96777.125000;;;3.270000;64.577148
77517;BME280;68414;53.946;27.634;2023-03-11T00:02:04;96770.093750;;;3.240000;64.794922
77517;BME280;68414;53.946;27.634;2023-03-11T00:03:05;96768.367188;;;3.260000;64.905273
77517;BME280;68414;53.946;27.634;2023-03-11T00:04:04;96770.468750;;;3.300000;64.889648
77517;BME280;68414;53.946;27.634;2023-03-11T00:05:05;96761.265625;;;3.330000;64.723633
77517;BME280;68414;53.946;27.634;2023-03-11T00:06:04;96755.625000;;;3.350000;64.672852
77517;BME280;68414;53.946;27.634;2023-03-11T00:07:05;96752.187500;;;3.320000;64.541016
77517;BME280;68414;53.946;27.634;2023-03-11T00:08:05;96754.031250;;;3.340000;64.789062
77517;BME280;68414;53.946;27.634;2023-03-11T00:09:04;96751.109375;;;3.320000;64.552734
77517;BME280;68414;53.946;27.634;2023-03-11T00:10:05;96748.976562;;;3.250000;64.807617
77517;BME280;68414;53.946;27.634;2023-03-11T00:11:04;96747.875000;;;3.280000;65.100586
77517;BME280;68414;53.946;27.634;2023-03-11T00:12:05;96745.140625;;;3.350000;65.099609
77517;BME280;68414;53.946;27.634;2023-03-11T00:13:05;96746.437500;;;3.400000;64.701172
77517;BME280;68414;53.946;27.634;2023-03-11T00:14:04;96741.984375;;;3.360000;64.782227
77517;BME280;68414;53.946;27.634;2023-03-11T00:15:05;96748.398438;;;3.380000;64.804688
77517;BME280;68414;53.946;27.634;2023-03-11T00:16:05;96744.117188;;;3.420000;64.791016
77517;BME280;68414;53.946;27.634;2023-03-11T00:17:04;96746.304688;;;3.500000;64.600586
77517;BME280;68414;53.946;27.634;2023-03-11T00:18:05;96741.484375;;;3.530000;64.498047
77517;BME280;68414;53.946;27.634;2023-03-11T00:19:04;96738.671875;;;3.510000;64.399414
77517;BME280;68414;53.946;27.634;2023-03-11T00:20:05;96736.890625;;;3.420000;64.353516
77517;BME280;68414;53.946;27.634;2023-03-11T00:21:04;96730.960938;;;3.420000;64.833008
77517;BME280;68414;53.946;27.634;2023-03-11T00:22:04;96736.296875;;;3.480000;64.757812
77517;BME280;68414;53.946;27.634;2023-03-11T00:23:05;96736.750000;;;3.520000;64.644531
77517;BME280;68414;53.946;27.634;2023-03-11T00:24:05;96739.750000;;;3.560000;64.566406
77517;BME280;68414;53.946;27.634;2023-03-11T00:25:04;96741.117188;;;3.610000;64.551758
77517;BME280;68414;53.946;27.634;2023-03-11T00:26:04;96735.437500;;;3.650000;64.164062
77517;BME280;68414;53.946;27.634;2023-03-11T00:27:04;96733.656250;;;3.640000;64.128906
77517;BME280;68414;53.946;27.634;2023-03-11T00:28:05;96734.789062;;;3.630000;64.150391
77517;BME280;68414;53.946;27.634;2023-03-11T00:29:04;96733.171875;;;3.650000;64.258789
77517;BME280;68414;53.946;27.634;2023-03-11T00:30:05;96733.851562;;;3.690000;64.192383
77517;BME280;68414;53.946;27.634;2023-03-11T00:31:04;96732.718750;;;3.740000;64.060547
77517;BME280;68414;53.946;27.634;2023-03-11T00:32:04;96733.648438;;;3.760000;63.923828
77517;BME280;68414;53.946;27.634;2023-03-11T00:33:05;96732.031250;;;3.740000;63.953125
77517;BME280;68414;53.946;27.634;2023-03-11T00:34:04;96733.562500;;;3.770000;63.966797
77517;BME280;68414;53.946;27.634;2023-03-11T00:35:05;96730.015625;;;3.760000;63.913086
77517;BME280;68414;53.946;27.634;2023-03-11T00:36:05;96727.890625;;;3.770000;63.925781
77517;BME280;68414;53.946;27.634;2023-03-11T00:37:04;96723.210938;;;3.710000;63.725586
77517;BME280;68414;53.946;27.634;2023-03-11T00:38:05;96729.828125;;;3.680000;64.157227
77517;BME280;68414;53.946;27.634;2023-03-11T00:39:04;96729.031250;;;3.680000;64.103516
77517;BME280;68414;53.946;27.634;2023-03-11T00:40:05;96728.093750;;;3.680000;64.305664
77517;BME280;68414;53.946;27.634;2023-03-11T00:41:04;96724.742188;;;3.710000;64.331055
77517;BME280;68414;53.946;27.634;2023-03-11T00:42:04;96719.953125;;;3.660000;64.196289
77517;BME280;68414;53.946;27.634;2023-03-11T00:43:04;96722.507812;;;3.660000;64.505859
77517;BME280;68414;53.946;27.634;2023-03-11T00:44:04;96723.781250;;;3.660000;64.389648
77517;BME280;68414;53.946;27.634;2023-03-11T00:45:05;96721.085938;;;3.700000;64.426758
77517;BME280;68414;53.946;27.634;2023-03-11T00:46:04;96719.804688;;;3.750000;64.423828
77517;BME280;68414;53.946;27.634;2023-03-11T00:47:04;96721.789062;;;3.770000;64.297852
77517;BME280;68414;53.946;27.634;2023-03-11T00:48:05;96720.000000;;;3.780000;64.289062
77517;BME280;68414;53.946;27.634;2023-03-11T00:49:04;96712.593750;;;3.770000;64.319336
77517;BME280;68414;53.946;27.634;2023-03-11T00:50:05;96712.484375;;;3.810000;64.315430
77517;BME280;68414;53.946;27.634;2023-03-11T00:51:05;96713.632812;;;3.870000;64.174805
77517;BME280;68414;53.946;27.634;2023-03-11T00:52:04;96710.906250;;;3.870000;63.863281
77517;BME280;68414;53.946;27.634;2023-03-11T00:53:04;96711.953125;;;3.880000;64.059570
77517;BME280;68414;53.946;27.634;2023-03-11T00:54:04;96708.015625;;;3.870000;63.747070
77517;BME280;68414;53.946;27.634;2023-03-11T00:55:05;96704.132812;;;3.840000;63.903320
77517;BME280;68414;53.946;27.634;2023-03-11T00:56:08;96703.625000;;;3.810000;64.112305
77517;BME280;68414;53.946;27.634;2023-03-11T00:57:04;96699.429688;;;3.790000;64.312500
77517;BME280;68414;53.946;27.634;2023-03-11T00:58:05;96698.320312;;;3.820000;64.412109
77517;BME280;68414;53.946;27.634;2023-03-11T00:59:04;96698.640625;;;3.760000;64.500000
77517;BME280;68414;53.946;27.634;2023-03-11T01:00:05;96695.515625;;;3.760000;64.639648
77517;BME280;68414;53.946;27.634;2023-03-11T01:02:04;96691.406250;;;3.890000;64.230469
77517;BME280;68414;53.946;27.634;2023-03-11T01:03:04;96690.531250;;;3.880000;64.080078
77517;BME280;68414;53.946;27.634;2023-03-11T01:04:04;96687.406250;;;3.910000;64.192383
77517;BME280;68414;53.946;27.634;2023-03-11T01:05:05;96685.335938;;;3.900000;64.243164
77517;BME280;68414;53.946;27.634;2023-03-11T01:06:04;96681.281250;;;3.750000;64.455078
77517;BME280;68414;53.946;27.634;2023-03-11T01:07:04;96684.296875;;;3.720000;64.877930
77517;BME280;68414;53.946;27.634;2023-03-11T01:08:07;96686.726562;;;3.770000;64.875000
77517;BME280;68414;53.946;27.634;2023-03-11T01:09:04;96681.953125;;;3.790000;64.900391
77517;BME280;68414;53.946;27.634;2023-03-11T01:10:05;96681.062500;;;3.850000;64.717773
77517;BME280;68414;53.946;27.634;2023-03-11T01:11:05;96679.953125;;;3.890000;64.508789
77517;BME280;68414;53.946;27.634;2023-03-11T01:12:04;96678.828125;;;3.850000;64.609375
77517;BME280;68414;53.946;27.634;2023-03-11T01:13:04;96679.078125;;;3.860000;64.739258
77517;BME280;68414;53.946;27.634;2023-03-11T01:14:04;96681.710938;;;3.890000;64.658203
77517;BME280;68414;53.946;27.634;2023-03-11T01:15:07;96678.875000;;;3.880000;64.625977
77517;BME280;68414;53.946;27.634;2023-03-11T01:16:04;96671.492188;;;3.880000;64.666992
77517;BME280;68414;53.946;27.634;2023-03-11T01:17:04;96670.414062;;;3.890000;64.732422
77517;BME280;68414;53.946;27.634;2023-03-11T01:18:05;96675.046875;;;3.870000;64.570312
77517;BME280;68414;53.946;27.634;2023-03-11T01:19:04;96668.500000;;;3.800000;64.846680
77517;BME280;68414;53.946;27.634;2023-03-11T01:20:05;96670.828125;;;3.800000;64.965820
77517;BME280;68414;53.946;27.634;2023-03-11T01:21:04;96669.187500;;;3.810000;64.999023
77517;BME280;68414;53.946;27.634;2023-03-11T01:22:04;96669.695312;;;3.810000;65.106445
77517;BME280;68414;53.946;27.634;2023-03-11T01:23:05;96667.765625;;;3.800000;65.136719
77517;BME280;68414;53.946;27.634;2023-03-11T01:24:04;96669.140625;;;3.850000;64.920898
77517;BME280;68414;53.946;27.634;2023-03-11T01:25:05;96669.039062;;;3.820000;64.924805
77517;BME280;68414;53.946;27.634;2023-03-11T01:26:04;96661.609375;;;3.670000;65.351562
77517;BME280;68414;53.946;27.634;2023-03-11T01:27:04;96661.500000;;;3.660000;65.691406
77517;BME280;68414;53.946;27.634;2023-03-11T01:28:05;96661.835938;;;3.660000;65.681641
77517;BME280;68414;53.946;27.634;2023-03-11T01:29:04;96658.070312;;;3.600000;66.056641
77517;BME280;68414;53.946;27.634;2023-03-11T01:30:05;96650.203125;;;3.520000;66.299805
77517;BME280;68414;53.946;27.634;2023-03-11T01:31:04;96645.804688;;;3.540000;66.471680
77517;BME280;68414;53.946;27.634;2023-03-11T01:32:05;96645.921875;;;3.540000;66.462891
77517;BME280;68414;53.946;27.634;2023-03-11T01:33:05;96646.757812;;;3.580000;66.393555
77517;BME280;68414;53.946;27.634;2023-03-11T01:34:04;96645.171875;;;3.590000;66.289062
77517;BME280;68414;53.946;27.634;2023-03-11T01:35:05;96645.109375;;;3.590000;66.382812
77517;BME280;68414;53.946;27.634;2023-03-11T01:36:04;96645.171875;;;3.570000;66.328125
77517;BME280;68414;53.946;27.634;2023-03-11T01:37:04;96645.125000;;;3.530000;66.482422
77517;BME280;68414;53.946;27.634;2023-03-11T01:38:04;96643.476562;;;3.550000;66.645508
77517;BME280;68414;53.946;27.634;2023-03-11T01:39:04;96646.023438;;;3.570000;66.616211
77517;BME280;68414;53.946;27.634;2023-03-11T01:40:05;96646.875000;;;3.590000;66.790039
77517;BME280;68414;53.946;27.634;2023-03-11T01:41:04;96645.906250;;;3.590000;66.865234
77517;BME280;68414;53.946;27.634;2023-03-11T01:42:04;96643.984375;;;3.580000;66.927734
77517;BME280;68414;53.946;27.634;2023-03-11T01:43:05;96635.398438;;;3.530000;67.144531
77517;BME280;68414;53.946;27.634;2023-03-11T01:44:04;96636.187500;;;3.520000;67.407227
77517;BME280;68414;53.946;27.634;2023-03-11T01:46:07;96640.093750;;;3.600000;67.303711
77517;BME280;68414;53.946;27.634;2023-03-11T01:48:05;96632.773438;;;3.600000;67.367188
77517;BME280;68414;53.946;27.634;2023-03-11T01:49:04;96635.421875;;;3.540000;67.591797
77517;BME280;68414;53.946;27.634;2023-03-11T01:50:05;96629.187500;;;3.550000;67.850586
77517;BME280;68414;53.946;27.634;2023-03-11T01:51:05;96623.265625;;;3.510000;67.919922
77517;BME280;68414;53.946;27.634;2023-03-11T01:52:05;96617.015625;;;3.550000;68.106445
77517;BME280;68414;53.946;27.634;2023-03-11T01:53:04;96617.171875;;;3.600000;68.115234
77517;BME280;68414;53.946;27.634;2023-03-11T01:55:05;96622.437500;;;3.700000;67.821289
77517;BME280;68414;53.946;27.634;2023-03-11T01:56:04;96623.906250;;;3.700000;67.746094
77517;BME280;68414;53.946;27.634;2023-03-11T01:57:09;96626.312500;;;3.710000;67.737305
77517;BME280;68414;53.946;27.634;2023-03-11T01:58:06;96630.851562;;;3.710000;67.587891
77517;BME280;68414;53.946;27.634;2023-03-11T01:59:05;96634.945312;;;3.670000;67.933594
77517;BME280;68414;53.946;27.634;2023-03-11T02:00:06;96632.328125;;;3.710000;68.248047
77517;BME280;68414;53.946;27.634;2023-03-11T02:01:04;96629.148438;;;3.720000;68.101562
77517;BME280;68414;53.946;27.634;2023-03-11T02:03:08;96627.546875;;;3.640000;68.313477
77517;BME280;68414;53.946;27.634;2023-03-11T02:04:04;96627.812500;;;3.730000;68.453125
77517;BME280;68414;53.946;27.634;2023-03-11T02:05:04;96626.039062;;;3.770000;68.354492
77517;BME280;68414;53.946;27.634;2023-03-11T02:06:06;96621.546875;;;3.820000;68.169922
77517;BME280;68414;53.946;27.634;2023-03-11T02:07:04;96617.562500;;;3.750000;68.148438
77517;BME280;68414;53.946;27.634;2023-03-11T02:08:04;96617.671875;;;3.760000;68.322266
77517;BME280;68414;53.946;27.634;2023-03-11T02:09:04;96611.570312;;;3.780000;68.270508
77517;BME280;68414;53.946;27.634;2023-03-11T02:10:05;96613.484375;;;3.720000;68.229492
77517;BME280;68414;53.946;27.634;2023-03-11T02:11:05;96613.390625;;;3.680000;68.488281
77517;BME280;68414;53.946;27.634;2023-03-11T02:12:04;96609.093750;;;3.580000;68.655273
77517;BME280;68414;53.946;27.634;2023-03-11T02:13:04;96601.156250;;;3.590000;69.178711
77517;BME280;68414;53.946;27.634;2023-03-11T02:14:05;96601.578125;;;3.600000;69.256836
77517;BME280;68414;53.946;27.634;2023-03-11T02:15:05;96602.250000;;;3.660000;69.317383
77517;BME280;68414;53.946;27.634;2023-03-11T02:16:04;96598.359375;;;3.670000;69.000000
77517;BME280;68414;53.946;27.634;2023-03-11T02:17:04;96595.687500;;;3.680000;68.990234
77517;BME280;68414;53.946;27.634;2023-03-11T02:18:05;96592.609375;;;3.710000;69.336914
77517;BME280;68414;53.946;27.634;2023-03-11T02:19:22;96593.656250;;;3.810000;69.375000
77517;BME280;68414;53.946;27.634;2023-03-11T02:20:11;96591.203125;;;3.850000;68.655273
77517;BME280;68414;53.946;27.634;2023-03-11T02:21:07;96589.171875;;;3.840000;68.739258
77517;BME280;68414;53.946;27.634;2023-03-11T02:22:04;96588.906250;;;3.860000;68.774414
77517;BME280;68414;53.946;27.634;2023-03-11T02:23:04;96587.265625;;;3.920000;68.913086
77517;BME280;68414;53.946;27.634;2023-03-11T02:25:09;96587.414062;;;4.040000;68.580078
77517;BME280;68414;53.946;27.634;2023-03-11T02:27:06;96583.031250;;;4.140000;68.382812
77517;BME280;68414;53.946;27.634;2023-03-11T02:28:05;96579.062500;;;4.160000;68.043945
77517;BME280;68414;53.946;27.634;2023-03-11T02:29:04;96581.390625;;;4.180000;67.875000
77517;BME280;68414;53.946;27.634;2023-03-11T02:30:04;96578.273438;;;4.220000;68.052734
77517;BME280;68414;53.946;27.634;2023-03-11T02:31:04;96577.476562;;;4.230000;67.466797
77517;BME280;68414;53.946;27.634;2023-03-11T02:32:05;96575.656250;;;4.230000;67.552734
77517;BME280;68414;53.946;27.634;2023-03-11T02:33:04;96574.023438;;;4.260000;67.759766
77517;BME280;68414;53.946;27.634;2023-03-11T02:34:04;96574.625000;;;4.300000;67.852539
77517;BME280;68414;53.946;27.634;2023-03-11T02:35:05;96572.351562;;;4.360000;67.689453
77517;BME280;68414;53.946;27.634;2023-03-11T02:36:04;96569.781250;;;4.340000;67.110352
77517;BME280;68414;53.946;27.634;2023-03-11T02:37:09;96567.609375;;;4.310000;67.275391
77517;BME280;68414;53.946;27.634;2023-03-11T02:38:04;96564.117188;;;4.360000;67.709961
77517;BME280;68414;53.946;27.634;2023-03-11T02:39:04;96560.945312;;;4.390000;67.438477
77517;BME280;68414;53.946;27.634;2023-03-11T02:41:04;96558.320312;;;4.450000;67.363281
77517;BME280;68414;53.946;27.634;2023-03-11T02:42:06;96557.460938;;;4.500000;66.911133
77517;BME280;68414;53.946;27.634;2023-03-11T02:43:05;96558.671875;;;4.530000;67.107422
77517;BME280;68414;53.946;27.634;2023-03-11T02:44:06;96559.390625;;;4.510000;66.740234
77517;BME280;68414;53.946;27.634;2023-03-11T02:45:06;96556.632812;;;4.470000;66.618164
77517;BME280;68414;53.946;27.634;2023-03-11T02:46:04;96554.539062;;;4.460000;67.022461
77517;BME280;68414;53.946;27.634;2023-03-11T02:47:04;96553.437500;;;4.460000;67.181641
77517;BME280;68414;53.946;27.634;2023-03-11T02:48:04;96546.585938;;;4.460000;67.247070
77517;BME280;68414;53.946;27.634;2023-03-11T02:49:04;96545.093750;;;4.480000;67.335938
77517;BME280;68414;53.946;27.634;2023-03-11T02:50:05;96551.007812;;;4.480000;67.077148
77517;BME280;68414;53.946;27.634;2023-03-11T02:51:04;96556.843750;;;4.530000;67.364258
77517;BME280;68414;53.946;27.634;2023-03-11T02:52:04;96552.140625;;;4.570000;67.006836
77517;BME280;68414;53.946;27.634;2023-03-11T02:53:04;96556.484375;;;4.570000;67.145508
77517;BME280;68414;53.946;27.634;2023-03-11T02:54:05;96555.421875;;;4.500000;66.942383
77517;BME280;68414;53.946;27.634;2023-03-11T02:55:05;96561.851562;;;4.530000;67.171875
77517;BME280;68414;53.946;27.634;2023-03-11T02:56:04;96567.351562;;;4.540000;67.140625
77517;BME280;68414;53.946;27.634;2023-03-11T02:57:04;96566.812500;;;4.580000;67.307617
77517;BME280;68414;53.946;27.634;2023-03-11T02:58:04;96571.875000;;;4.660000;67.416992
77517;BME280;68414;53.946;27.634;2023-03-11T02:59:04;96566.750000;;;4.670000;67.149414
77517;BME280;68414;53.946;27.634;2023-03-11T03:00:05;96563.031250;;;4.630000;66.353516
77517;BME280;68414;53.946;27.634;2023-03-11T03:01:04;96558.156250;;;4.610000;66.735352
77517;BME280;68414;53.946;27.634;2023-03-11T03:02:04;96564.468750;;;4.640000;66.856445
77517;BME280;68414;53.946;27.634;2023-03-11T03:03:04;96567.906250;;;4.600000;66.584961
77517;BME280;68414;53.946;27.634;2023-03-11T03:04:04;96557.234375;;;4.630000;67.133789
77517;BME280;68414;53.946;27.634;2023-03-11T03:05:04;96556.984375;;;4.670000;66.765625
77517;BME280;68414;53.946;27.634;2023-03-11T03:06:04;96555.796875;;;4.700000;66.577148
77517;BME280;68414;53.946;27.634;2023-03-11T03:07:04;96553.632812;;;4.670000;66.518555
77517;BME280;68414;53.946;27.634;2023-03-11T03:08:04;96550.351562;;;4.680000;66.884766
77517;BME280;68414;53.946;27.634;2023-03-11T03:09:04;96546.640625;;;4.670000;66.561523
77517;BME280;68414;53.946;27.634;2023-03-11T03:10:05;96545.453125;;;4.670000;66.817383
77517;BME280;68414;53.946;27.634;2023-03-11T03:11:04;96546.921875;;;4.750000;66.884766
77517;BME280;68414;53.946;27.634;2023-03-11T03:12:04;96546.281250;;;4.760000;66.640625
77517;BME280;68414;53.946;27.634;2023-03-11T03:13:04;96548.328125;;;4.720000;66.400391
77517;BME280;68414;53.946;27.634;2023-03-11T03:14:04;96549.007812;;;4.730000;66.571289
77517;BME280;68414;53.946;27.634;2023-03-11T03:15:04;96556.468750;;;4.660000;66.133789
77517;BME280;68414;53.946;27.634;2023-03-11T03:16:04;96558.812500;;;4.600000;66.616211
77517;BME280;68414;53.946;27.634;2023-03-11T03:17:04;96556.796875;;;4.610000;66.885742
77517;BME280;68414;53.946;27.634;2023-03-11T03:18:04;96550.359375;;;4.600000;67.042969
77517;BME280;68414;53.946;27.634;2023-03-11T03:19:04;96550.093750;;;4.570000;66.771484
77517;BME280;68414;53.946;27.634;2023-03-11T03:20:05;96548.250000;;;4.600000;66.958984
77517;BME280;68414;53.946;27.634;2023-03-11T03:21:04;96551.546875;;;4.600000;66.777344
77517;BME280;68414;53.946;27.634;2023-03-11T03:22:04;96545.992188;;;4.630000;66.694336
77517;BME280;68414;53.946;27.634;2023-03-11T03:23:04;96543.250000;;;4.680000;66.906250
77517;BME280;68414;53.946;27.634;2023-03-11T03:24:04;96541.812500;;;4.670000;66.659180
77517;BME280;68414;53.946;27.634;2023-03-11T03:25:04;96545.804688;;;4.680000;66.831055
77517;BME280;68414;53.946;27.634;2023-03-11T03:26:04;96542.218750;;;4.770000;66.674805
77517;BME280;68414;53.946;27.634;2023-03-11T03:27:04;96535.437500;;;4.780000;66.494141
77517;BME280;68414;53.946;27.634;2023-03-11T03:28:04;96538.015625;;;4.790000;66.143555
77517;BME280;68414;53.946;27.634;2023-03-11T03:29:04;96537.093750;;;4.770000;66.042969
77517;BME280;68414;53.946;27.634;2023-03-11T03:30:05;96530.656250;;;4.760000;66.319336
77517;BME280;68414;53.946;27.634;2023-03-11T03:31:08;96529.484375;;;4.770000;66.289062
77517;BME280;68414;53.946;27.634;2023-03-11T03:32:04;96527.796875;;;4.790000;66.429688
77517;BME280;68414;53.946;27.634;2023-03-11T03:33:04;96522.062500;;;4.840000;66.524414
77517;BME280;68414;53.946;27.634;2023-03-11T03:34:04;96520.656250;;;4.860000;66.186523
77517;BME280;68414;53.946;27.634;2023-03-11T03:35:04;96515.609375;;;4.910000;66.182617
77517;BME280;68414;53.946;27.634;2023-03-11T03:36:05;96514.296875;;;4.850000;65.551758
77517;BME280;68414;53.946;27.634;2023-03-11T03:37:04;96504.945312;;;4.830000;65.889648
77517;BME280;68414;53.946;27.634;2023-03-11T03:38:04;96505.953125;;;4.780000;66.109375
77517;BME280;68414;53.946;27.634;2023-03-11T03:39:04;96502.070312;;;4.830000;66.416016
77517;BME280;68414;53.946;27.634;2023-03-11T03:40:05;96502.195312;;;4.880000;66.103516
77517;BME280;68414;53.946;27.634;2023-03-11T03:41:04;96502.453125;;;4.850000;65.648438
77517;BME280;68414;53.946;27.634;2023-03-11T03:42:06;96502.828125;;;4.870000;66.133789
77517;BME280;68414;53.946;27.634;2023-03-11T03:43:04;96502.164062;;;4.950000;66.134766
77517;BME280;68414;53.946;27.634;2023-03-11T03:44:04;96501.937500;;;4.970000;65.741211
77517;BME280;68414;53.946;27.634;2023-03-11T03:45:05;96504.484375;;;4.950000;65.226562
77517;BME280;68414;53.946;27.634;2023-03-11T03:46:04;96504.046875;;;4.940000;65.715820
77517;BME280;68414;53.946;27.634;2023-03-11T03:47:04;96504.437500;;;4.950000;65.524414
77517;BME280;68414;53.946;27.634;2023-03-11T03:48:04;96501.820312;;;4.920000;65.498047
77517;BME280;68414;53.946;27.634;2023-03-11T03:49:04;96503.070312;;;4.920000;65.839844
77517;BME280;68414;53.946;27.634;2023-03-11T03:50:05;96499.031250;;;4.920000;65.820312
77517;BME280;68414;53.946;27.634;2023-03-11T03:51:05;96498.687500;;;4.950000;65.879883
77517;BME280;68414;53.946;27.634;2023-03-11T03:52:05;96493.875000;;;4.960000;65.590820
77517;BME280;68414;53.946;27.634;2023-03-11T03:53:04;96489.312500;;;4.950000;65.674805
77517;BME280;68414;53.946;27.634;2023-03-11T03:54:04;96487.789062;;;4.940000;65.598633
77517;BME280;68414;53.946;27.634;2023-03-11T03:55:04;96488.523438;;;4.970000;65.732422
77517;BME280;68414;53.946;27.634;2023-03-11T03:56:05;96489.679688;;;4.980000;65.754883
77517;BME280;68414;53.946;27.634;2023-03-11T03:57:04;96486.218750;;;5.010000;65.704102
77517;BME280;68414;53.946;27.634;2023-03-11T03:58:04;96480.710938;;;5.030000;65.558594
77517;BME280;68414;53.946;27.634;2023-03-11T03:59:04;96484.156250;;;5.020000;65.450195
77517;BME280;68414;53.946;27.634;2023-03-11T04:00:04;96486.125000;;;5.050000;65.444336
77517;BME280;68414;53.946;27.634;2023-03-11T04:01:04;96488.796875;;;5.100000;65.472656
77517;BME280;68414;53.946;27.634;2023-03-11T04:02:04;96483.625000;;;5.130000;65.273438
77517;BME280;68414;53.946;27.634;2023-03-11T04:03:04;96476.578125;;;5.150000;65.265625
77517;BME280;68414;53.946;27.634;2023-03-11T04:04:04;96473.640625;;;5.130000;65.004883
77517;BME280;68414;53.946;27.634;2023-03-11T04:05:04;96472.617188;;;5.020000;64.936523
77517;BME280;68414;53.946;27.634;2023-03-11T04:06:25;96477.992188;;;5.050000;65.377930
77517;BME280;68414;53.946;27.634;2023-03-11T04:07:04;96471.906250;;;5.050000;65.240234
77517;BME280;68414;53.946;27.634;2023-03-11T04:08:04;96469.242188;;;4.960000;65.322266
77517;BME280;68414;53.946;27.634;2023-03-11T04:09:04;96463.570312;;;4.970000;65.484375
77517;BME280;68414;53.946;27.634;2023-03-11T04:10:04;96458.812500;;;5.010000;65.533203
77517;BME280;68414;53.946;27.634;2023-03-11T04:11:04;96456.367188;;;5.010000;65.415039
77517;BME280;68414;53.946;27.634;2023-03-11T04:12:04;96463.890625;;;5.060000;65.476562
77517;BME280;68414;53.946;27.634;2023-03-11T04:13:04;96455.070312;;;5.060000;65.293945
77517;BME280;68414;53.946;27.634;2023-03-11T04:14:04;96453.265625;;;5.150000;65.212891
77517;BME280;68414;53.946;27.634;2023-03-11T04:15:04;96452.312500;;;5.140000;64.729492
77517;BME280;68414;53.946;27.634;2023-03-11T04:16:05;96452.921875;;;5.080000;64.827148
77517;BME280;68414;53.946;27.634;2023-03-11T04:17:04;96455.296875;;;5.060000;65.145508
77517;BME280;68414;53.946;27.634;2023-03-11T04:18:04;96462.132812;;;5.050000;64.928711
77517;BME280;68414;53.946;27.634;2023-03-11T04:19:04;96458.460938;;;5.020000;65.022461
77517;BME280;68414;53.946;27.634;2023-03-11T04:20:04;96448.984375;;;5.000000;65.147461
77517;BME280;68414;53.946;27.634;2023-03-11T04:21:04;96449.320312;;;5.010000;65.276367
77517;BME280;68414;53.946;27.634;2023-03-11T04:22:04;96446.882812;;;5.030000;65.409180
77517;BME280;68414;53.946;27.634;2023-03-11T04:23:04;96444.671875;;;5.080000;65.308594
77517;BME280;68414;53.946;27.634;2023-03-11T04:24:04;96442.171875;;;5.100000;65.257812
77517;BME280;68414;53.946;27.634;2023-03-11T04:25:04;96442.054688;;;5.110000;64.476562
77517;BME280;68414;53.946;27.634;2023-03-11T04:26:04;96437.867188;;;4.960000;64.905273
77517;BME280;68414;53.946;27.634;2023-03-11T04:27:04;96438.023438;;;5.050000;65.218750
77517;BME280;68414;53.946;27.634;2023-03-11T04:28:04;96444.328125;;;5.110000;64.927734
77517;BME280;68414;53.946;27.634;2023-03-11T04:29:04;96454.781250;;;5.040000;64.702148
77517;BME280;68414;53.946;27.634;2023-03-11T04:30:05;96458.968750;;;4.970000;65.067383
77517;BME280;68414;53.946;27.634;2023-03-11T04:31:04;96463.453125;;;4.970000;65.335938
77517;BME280;68414;53.946;27.634;2023-03-11T04:32:04;96468.031250;;;4.910000;65.069336
77517;BME280;68414;53.946;27.634;2023-03-11T04:33:04;96470.406250;;;4.860000;65.373047
77517;BME280;68414;53.946;27.634;2023-03-11T04:34:04;96480.921875;;;4.810000;65.450195
77517;BME280;68414;53.946;27.634;2023-03-11T04:35:04;96480.500000;;;4.800000;65.694336
77517;BME280;68414;53.946;27.634;2023-03-11T04:36:05;96478.125000;;;4.700000;65.786133
77517;BME280;68414;53.946;27.634;2023-03-11T04:37:04;96474.156250;;;4.690000;66.094727
77517;BME280;68414;53.946;27.634;2023-03-11T04:38:04;96464.546875;;;4.690000;66.244141
77517;BME280;68414;53.946;27.634;2023-03-11T04:39:04;96465.187500;;;4.630000;66.033203
77517;BME280;68414;53.946;27.634;2023-03-11T04:40:04;96456.937500;;;4.550000;66.492188
77517;BME280;68414;53.946;27.634;2023-03-11T04:41:05;96454.281250;;;4.600000;66.561523